KBVO/BVO METAR and TAF weather

Enter ICAO airport designator
Station Type Date Time Source
KBVO METAR 2021/04/14 19:53 UTC NOAA

KBVO 141953Z AUTO 04010KT 10SM CLR 18/02 A3017 RMK AO2 SLP209 T01830022


Station Type Date Time Source
KBVO Decoded METAR 2021/04/14 19:53 UTC NOAA

BARTLESVILLE MUNICIPAL AIRPORT , OK, United States (KBVO) 36-46N 96-01W 210M
Apr 14, 2021 - 03:53 PM EDT / 2021.04.14 1953 UTC
Wind: from the NE (040 degrees) at 12 MPH (10 KT):0
Visibility: 10 mile(s):0
Sky conditions: clear
Temperature: 64.9 F (18.3 C)
Dew Point: 36.0 F (2.2 C)
Relative Humidity: 34%
Pressure (altimeter): 30.17 in. Hg (1021 hPa)
ob: KBVO 141953Z AUTO 04010KT 10SM CLR 18/02 A3017 RMK AO2 SLP209 T01830022
cycle: 20

Station Type Date Time Source
KBVO TAF 2021/04/14 18:22 UTC NOAA

TAF KBVO 141720Z 1418/1518 04009KT P6SM SKC
FM150000 03005KT P6SM VCSH OVC050
FM150600 VRB04KT P6SM BKN100

Example: see airport list